Terminal Aerodrome Forecast
Issued by NWS Wilmington, NC

Home | Current Version | Previous Version | Text Only | Print | Product List | Glossary On
Versions: 1 2 3 4 5 6 7 8 9 10 11 12 13 14 15 16 17 18 19 20 21 22
000
FTUS42 KILM 251700
TAFILM
TAF
KILM 251722Z 2518/2618 09005KT P6SM BKN015
     FM251845 12006KT P6SM BKN025
      TEMPO 2520/2524 BKN035 BKN100
     FM260000 00000KT P6SM SCT020 BKN100
     FM260800 21003KT 4SM BR FEW020 SCT060
     FM261400 VRB04KT P6SM SCT025=

USA.gov is the U.S. government's official web portal to all federal, state and local government web resources and services.